Time;durP1;ratioP1;P1;durP2;ratioP2;P2;SDS_P1;SDS_P2;PMS_P1;PMS_P2;Temp;Humidity;BMP_temperature;BMP_pressure;BME280_temperature;BME280_humidity;BME280_pressure;Samples;Min_cycle;Max_cycle;Signal;HPM_P1;HPM_P2
2021/08/04 00:29:26;;;;;;;16.48;10.27;;;;;;;;;;5073030;28;20043;-62
2021/08/04 00:31:52;;;;;;;17.38;10.13;;;;;;;;;;5072303;28;20473;-63
2021/08/04 00:34:18;;;;;;;17.90;10.48;;;;;;;;;;5072220;28;20028;-63
2021/08/04 00:36:44;;;;;;;17.73;10.15;;;;;;;;;;5071742;28;20444;-62
2021/08/04 00:39:10;;;;;;;19.27;10.40;;;;;;;;;;5072524;28;20045;-62
2021/08/04 00:41:45;;;;;;;18.77;9.98;;;;;;;;;;5054276;28;20436;-62
2021/08/04 00:44:11;;;;;;;18.20;10.32;;;;;;;;;;5054253;28;20024;-62
2021/08/04 00:46:41;;;;;;;16.52;10.00;;;;;;;;;;5071562;28;20106;-62
2021/08/04 00:49:07;;;;;;;16.02;10.13;;;;;;;;;;5072278;28;20068;-62
2021/08/04 00:51:33;;;;;;;16.80;9.75;;;;;;;;;;5072302;28;20111;-62
2021/08/04 00:54:01;;;;;;;18.05;10.35;;;;;;;;;;5071863;28;20024;-62
2021/08/04 00:56:27;;;;;;;17.83;10.50;;;;;;;;;;5053427;28;20468;-62
2021/08/04 00:58:55;;;;;;;17.92;9.93;;;;;;;;;;5054116;28;20017;-62
2021/08/04 01:01:22;;;;;;;17.35;9.93;;;;;;;;;;5053897;28;20112;-62
2021/08/04 01:03:52;;;;;;;16.75;10.38;;;;;;;;;;5071865;28;20060;-62
2021/08/04 01:06:24;;;;;;;18.00;10.27;;;;;;;;;;5052926;28;20093;-62
2021/08/04 01:08:55;;;;;;;20.55;10.27;;;;;;;;;;5054243;28;20024;-62
2021/08/04 01:11:21;;;;;;;20.13;11.13;;;;;;;;;;5071818;28;20112;-62
2021/08/04 01:13:48;;;;;;;16.48;10.30;;;;;;;;;;5053540;28;20031;-63
2021/08/04 01:16:18;;;;;;;16.83;9.65;;;;;;;;;;5070692;28;20481;-63
2021/08/04 01:18:59;;;;;;;16.75;9.70;;;;;;;;;;5071511;28;20024;-62
2021/08/04 01:21:38;;;;;;;18.00;10.25;;;;;;;;;;5053835;28;20481;-62
2021/08/04 01:24:07;;;;;;;15.70;10.00;;;;;;;;;;5053704;28;20439;-62
2021/08/04 01:26:43;;;;;;;16.60;10.30;;;;;;;;;;5053212;28;20496;-62
2021/08/04 01:29:12;;;;;;;16.42;9.77;;;;;;;;;;5071000;28;20334;-62
2021/08/04 01:31:39;;;;;;;16.73;10.10;;;;;;;;;;5071362;28;20066;-62
2021/08/04 01:34:06;;;;;;;18.92;10.25;;;;;;;;;;5053196;28;20027;-62
2021/08/04 01:36:33;;;;;;;19.65;10.35;;;;;;;;;;5070446;28;20396;-63
2021/08/04 01:39:00;;;;;;;17.92;9.88;;;;;;;;;;5071533;28;20431;-62
2021/08/04 01:41:27;;;;;;;16.63;10.13;;;;;;;;;;5070922;28;20052;-63
2021/08/04 01:43:54;;;;;;;17.30;9.68;;;;;;;;;;5053398;28;20056;-62
2021/08/04 01:46:21;;;;;;;18.13;10.65;;;;;;;;;;5052447;28;20250;-62
2021/08/04 01:48:48;;;;;;;17.15;10.18;;;;;;;;;;5036461;28;20028;-62
2021/08/04 01:51:17;;;;;;;17.77;10.68;;;;;;;;;;5053392;28;20028;-62
2021/08/04 01:53:44;;;;;;;;;;;;;;;;;;5053508;28;20115;-62
2021/08/04 01:56:11;;;;;;;17.30;10.63;;;;;;;;;;5070168;28;20314;-62
2021/08/04 01:58:39;;;;;;;18.23;10.30;;;;;;;;;;5052784;28;20035;-62
2021/08/04 02:01:05;;;;;;;16.33;10.23;;;;;;;;;;5053160;28;20025;-62
2021/08/04 02:03:31;;;;;;;17.45;10.02;;;;;;;;;;5053026;28;20301;-62
2021/08/04 02:06:00;;;;;;;17.63;10.50;;;;;;;;;;5070103;28;20051;-66
2021/08/04 02:08:31;;;;;;;17.38;10.57;;;;;;;;;;5052960;28;20086;-62
2021/08/04 02:11:02;;;;;;;16.77;10.25;;;;;;;;;;5052653;28;20024;-62
2021/08/04 02:13:42;;;;;;;16.40;10.27;;;;;;;;;;5070587;28;20021;-62
2021/08/04 02:16:19;;;;;;;17.92;10.32;;;;;;;;;;5069939;28;20396;-63
2021/08/04 02:18:47;;;;;;;18.15;11.02;;;;;;;;;;5052630;28;20078;-62
2021/08/04 02:21:14;;;;;;;18.70;10.10;;;;;;;;;;5070489;28;20071;-62
2021/08/04 02:23:40;;;;;;;16.27;10.48;;;;;;;;;;5052519;28;20454;-62
2021/08/04 02:26:13;;;;;;;22.25;14.18;;;;;;;;;;5051715;28;20079;-62
2021/08/04 02:28:41;;;;;;;21.92;18.38;;;;;;;;;;5052349;28;20049;-62
2021/08/04 02:31:08;;;;;;;26.02;22.70;;;;;;;;;;5070386;28;20500;-62
2021/08/04 02:33:34;;;;;;;38.70;34.80;;;;;;;;;;5070160;28;20020;-62
2021/08/04 02:36:00;;;;;;;46.00;41.42;;;;;;;;;;5069608;28;20024;-62
2021/08/04 02:38:26;;;;;;;47.15;42.47;;;;;;;;;;5052577;28;20116;-62
2021/08/04 02:40:53;;;;;;;47.20;42.80;;;;;;;;;;5074550;28;20449;-62
2021/08/04 02:43:22;;;;;;;30.40;27.10;;;;;;;;;;5074141;28;20032;-62
2021/08/04 02:45:49;;;;;;;26.30;23.40;;;;;;;;;;5055681;28;20068;-62
2021/08/04 02:48:15;;;;;;;26.15;20.90;;;;;;;;;;5056312;28;20040;-62
2021/08/04 02:50:45;;;;;;;27.10;20.60;;;;;;;;;;5056327;28;20485;-62
2021/08/04 02:53:14;;;;;;;25.63;19.05;;;;;;;;;;5056146;28;20074;-63
2021/08/04 02:55:40;;;;;;;22.80;16.00;;;;;;;;;;5055715;28;20029;-62
2021/08/04 02:58:05;;;;;;;21.55;14.52;;;;;;;;;;5074565;28;20356;-62
2021/08/04 03:00:31;;;;;;;20.75;13.75;;;;;;;;;;5056266;28;20028;-62
2021/08/04 03:02:57;;;;;;;21.60;12.65;;;;;;;;;;5074146;28;20032;-62
2021/08/04 03:05:23;;;;;;;18.98;11.88;;;;;;;;;;5073402;28;20029;-62
2021/08/04 03:07:49;;;;;;;18.38;10.88;;;;;;;;;;5056213;28;20028;-62
2021/08/04 03:10:15;;;;;;;18.05;11.20;;;;;;;;;;5056036;28;20388;-62
2021/08/04 03:12:41;;;;;;;16.80;11.02;;;;;;;;;;5055947;28;20123;-62
2021/08/04 03:15:08;;;;;;;17.15;10.32;;;;;;;;;;5055245;28;20024;-62
2021/08/04 03:17:34;;;;;;;17.35;10.48;;;;;;;;;;5055834;28;20073;-62
2021/08/04 03:20:00;;;;;;;17.30;10.70;;;;;;;;;;5073924;28;20028;-62
2021/08/04 03:22:26;;;;;;;16.80;10.75;;;;;;;;;;5073904;28;20433;-62
2021/08/04 03:24:51;;;;;;;17.02;10.45;;;;;;;;;;5073437;28;20039;-62
2021/08/04 03:27:17;;;;;;;17.08;10.75;;;;;;;;;;5055247;28;20070;-62
2021/08/04 03:29:43;;;;;;;18.48;10.43;;;;;;;;;;5073654;28;20486;-62
2021/08/04 03:32:09;;;;;;;16.77;10.70;;;;;;;;;;5073362;28;20438;-62
2021/08/04 03:34:35;;;;;;;17.35;10.65;;;;;;;;;;5073274;28;20124;-62
2021/08/04 03:37:01;;;;;;;17.30;10.75;;;;;;;;;;5072822;28;20389;-62
2021/08/04 03:39:27;;;;;;;17.85;10.52;;;;;;;;;;5073295;28;20028;-62
2021/08/04 03:41:53;;;;;;;21.08;11.75;;;;;;;;;;5055629;28;20365;-62
2021/08/04 03:44:19;;;;;;;18.55;11.43;;;;;;;;;;5073078;28;20032;-62
2021/08/04 03:46:48;;;;;;;17.40;10.55;;;;;;;;;;5054810;28;20483;-62
2021/08/04 03:49:17;;;;;;;17.98;10.75;;;;;;;;;;5073732;28;20032;-62
2021/08/04 03:51:43;;;;;;;19.67;11.23;;;;;;;;;;5054494;28;20036;-62
2021/08/04 03:54:09;;;;;;;17.05;10.30;;;;;;;;;;5072778;28;20032;-62
2021/08/04 03:56:35;;;;;;;18.52;10.85;;;;;;;;;;5072390;28;20104;-62
2021/08/04 03:59:01;;;;;;;18.98;11.40;;;;;;;;;;5072991;28;20021;-62
2021/08/04 04:01:28;;;;;;;19.25;11.55;;;;;;;;;;5072999;28;20051;-62
2021/08/04 04:03:54;;;;;;;19.38;12.10;;;;;;;;;;5072909;28;20396;-62
2021/08/04 04:06:20;;;;;;;17.15;11.43;;;;;;;;;;5072294;28;20035;-62
2021/08/04 04:08:45;;;;;;;20.30;12.23;;;;;;;;;;5072996;28;20025;-62
2021/08/04 04:11:11;;;;;;;18.55;12.45;;;;;;;;;;5054922;28;20627;-62
2021/08/04 04:13:37;;;;;;;18.00;12.15;;;;;;;;;;5054828;28;20110;-62
2021/08/04 04:16:04;;;;;;;17.88;11.68;;;;;;;;;;5053887;28;20586;-63
2021/08/04 04:18:30;;;;;;;19.50;12.05;;;;;;;;;;5054894;28;20025;-62
2021/08/04 04:20:56;;;;;;;17.55;11.27;;;;;;;;;;5072616;28;20147;-62
2021/08/04 04:23:22;;;;;;;18.55;11.95;;;;;;;;;;5054994;28;20487;-62
2021/08/04 04:25:48;;;;;;;18.67;11.80;;;;;;;;;;5071911;28;20056;-62
2021/08/04 04:28:14;;;;;;;21.65;13.43;;;;;;;;;;5072807;28;20052;-62
2021/08/04 04:30:40;;;;;;;18.65;11.75;;;;;;;;;;5054560;28;20102;-62
2021/08/04 04:33:06;;;;;;;19.48;11.77;;;;;;;;;;5054697;28;20017;-62
2021/08/04 04:35:32;;;;;;;20.35;12.13;;;;;;;;;;5071699;28;20484;-62
2021/08/04 04:37:58;;;;;;;18.58;11.65;;;;;;;;;;5054206;28;20213;-62
2021/08/04 04:40:24;;;;;;;19.23;11.02;;;;;;;;;;5054621;28;20025;-62
2021/08/04 04:42:52;;;;;;;17.52;11.18;;;;;;;;;;5072319;28;20067;-62
2021/08/04 04:45:18;;;;;;;18.40;11.70;;;;;;;;;;5071626;28;20040;-62
2021/08/04 04:47:44;;;;;;;20.17;12.55;;;;;;;;;;5072562;28;20025;-62
2021/08/04 04:50:10;;;;;;;20.92;12.77;;;;;;;;;;5070465;28;20031;-62
2021/08/04 04:52:43;;;;;;;21.92;14.38;;;;;;;;;;5054704;28;20131;-62
2021/08/04 04:55:10;;;;;;;18.83;11.05;;;;;;;;;;5053727;28;20024;-62
2021/08/04 04:57:36;;;;;;;18.63;12.02;;;;;;;;;;5054780;28;20058;-63
2021/08/04 05:00:03;;;;;;;18.10;12.20;;;;;;;;;;5054365;28;20017;-62
2021/08/04 05:02:28;;;;;;;18.88;12.00;;;;;;;;;;5053184;28;20170;-63
2021/08/04 05:04:57;;;;;;;23.33;16.30;;;;;;;;;;5054211;28;20078;-63
2021/08/04 05:07:23;;;;;;;18.33;13.00;;;;;;;;;;5071428;28;20027;-62
2021/08/04 05:09:49;;;;;;;22.98;13.90;;;;;;;;;;5071785;28;20108;-64
2021/08/04 05:12:15;;;;;;;21.48;12.40;;;;;;;;;;5053753;28;20031;-64
2021/08/04 05:14:41;;;;;;;19.50;14.10;;;;;;;;;;5071523;28;20450;-63
2021/08/04 05:17:10;;;;;;;18.88;12.20;;;;;;;;;;5053097;28;20488;-64
2021/08/04 05:19:36;;;;;;;23.95;13.25;;;;;;;;;;5050454;28;20027;-64
2021/08/04 05:22:02;;;;;;;19.00;12.20;;;;;;;;;;5069660;28;20024;-64
2021/08/04 05:24:28;;;;;;;18.88;12.13;;;;;;;;;;5053458;28;20043;-67
2021/08/04 05:26:54;;;;;;;17.58;11.95;;;;;;;;;;5070999;28;20029;-58
2021/08/04 05:29:20;;;;;;;18.52;12.13;;;;;;;;;;5053221;28;20098;-58
2021/08/04 05:31:46;;;;;;;18.15;12.43;;;;;;;;;;5070893;28;20111;-59
2021/08/04 05:34:12;;;;;;;18.25;11.45;;;;;;;;;;5070882;28;20505;-60
2021/08/04 05:36:38;;;;;;;17.83;12.00;;;;;;;;;;5070303;28;20035;-61
2021/08/04 05:39:04;;;;;;;18.58;11.70;;;;;;;;;;5071045;28;20016;-59
2021/08/04 05:41:30;;;;;;;17.42;11.70;;;;;;;;;;5070981;28;20100;-59
2021/08/04 05:43:56;;;;;;;20.50;12.02;;;;;;;;;;5070958;28;20090;-57
2021/08/04 05:46:22;;;;;;;19.88;14.05;;;;;;;;;;5078069;22;20057;-60
2021/08/04 05:48:48;;;;;;;20.40;12.93;;;;;;;;;;5052149;28;20489;-52
2021/08/04 05:51:14;;;;;;;18.05;12.07;;;;;;;;;;5052268;28;20025;-56
2021/08/04 05:53:40;;;;;;;20.58;13.32;;;;;;;;;;5033817;28;20051;-57
2021/08/04 05:56:06;;;;;;;20.40;15.07;;;;;;;;;;5051227;28;20100;-59
2021/08/04 05:58:32;;;;;;;16.55;11.13;;;;;;;;;;5052006;28;20052;-59
2021/08/04 06:00:58;;;;;;;24.33;12.20;;;;;;;;;;5051920;28;20092;-60
2021/08/04 06:03:24;;;;;;;18.23;11.88;;;;;;;;;;5034009;28;20027;-61
2021/08/04 06:05:50;;;;;;;18.60;12.77;;;;;;;;;;5051362;28;20461;-65
2021/08/04 06:08:16;;;;;;;18.15;11.93;;;;;;;;;;5033924;28;20117;-62
2021/08/04 06:10:42;;;;;;;23.42;13.77;;;;;;;;;;5051672;28;20033;-63
2021/08/04 06:13:08;;;;;;;22.55;15.57;;;;;;;;;;5051799;28;20021;-62
2021/08/04 06:15:34;;;;;;;20.75;12.55;;;;;;;;;;5032709;28;20130;-63
2021/08/04 06:18:00;;;;;;;18.65;12.73;;;;;;;;;;5051664;28;20491;-63
2021/08/04 06:20:26;;;;;;;17.65;12.18;;;;;;;;;;5051440;28;20028;-63
2021/08/04 06:22:52;;;;;;;19.75;12.30;;;;;;;;;;5033763;28;20024;-60
2021/08/04 06:25:18;;;;;;;17.35;11.52;;;;;;;;;;5051073;28;20031;-63
2021/08/04 06:27:44;;;;;;;18.58;12.00;;;;;;;;;;5051335;28;20032;-62
2021/08/04 06:30:10;;;;;;;17.75;12.70;;;;;;;;;;5033354;28;20401;-63
2021/08/04 06:32:36;;;;;;;19.65;12.60;;;;;;;;;;5051260;28;20037;-60
2021/08/04 06:35:02;;;;;;;17.08;11.52;;;;;;;;;;5051177;28;20266;-63
2021/08/04 06:37:28;;;;;;;18.80;12.20;;;;;;;;;;5032889;28;20032;-63
2021/08/04 06:39:53;;;;;;;18.85;11.52;;;20.20;99.90;;;;;;5051339;28;20024;-59
2021/08/04 06:42:19;;;;;;;16.85;12.10;;;19.50;99.90;;;;;;5051440;28;20017;-62
2021/08/04 06:44:45;;;;;;;20.33;12.73;;;19.40;99.90;;;;;;5033348;28;20028;-63
2021/08/04 06:47:10;;;;;;;17.20;11.40;;;19.40;99.90;;;;;;5032721;28;20025;-62
2021/08/04 06:49:37;;;;;;;16.77;11.85;;;19.40;99.90;;;;;;5051260;28;20033;-62
2021/08/04 06:52:02;;;;;;;18.05;12.20;;;19.70;99.90;;;;;;5051259;28;20029;-63
2021/08/04 06:54:28;;;;;;;18.55;12.57;;;19.70;99.90;;;;;;5051222;28;20389;-63
2021/08/04 06:56:54;;;;;;;17.40;12.00;;;19.60;99.90;;;;;;5032532;28;20064;-64
2021/08/04 06:59:19;;;;;;;17.15;12.68;;;19.80;99.90;;;;;;5033445;28;20040;-62
2021/08/04 07:01:45;;;;;;;17.33;12.10;;;19.80;99.90;;;;;;5032946;28;20024;-63
2021/08/04 07:04:14;;;;;;;19.20;12.07;;;19.80;99.90;;;;;;5051042;28;20029;-62
2021/08/04 07:06:56;;;;;;;16.35;11.50;;;19.60;99.90;;;;;;5050376;28;20028;-63
2021/08/04 07:09:23;;;;;;;18.10;12.00;;;19.60;99.90;;;;;;5033390;28;20118;-60
2021/08/04 07:11:49;;;;;;;19.50;11.95;;;19.40;99.90;;;;;;5033216;28;20025;-61
2021/08/04 07:14:18;;;;;;;17.70;11.77;;;19.50;99.90;;;;;;5050631;28;20025;-60
2021/08/04 07:16:46;;;;;;;;;;;19.60;99.90;;;;;;5050755;28;20501;-61
2021/08/04 07:19:12;;;;;;;15.80;11.02;;;19.60;99.90;;;;;;5049390;28;19920;-63
2021/08/04 07:21:39;;;;;;;16.90;11.18;;;19.70;99.90;;;;;;5050652;28;20439;-64
2021/08/04 07:24:06;;;;;;;18.63;11.57;;;19.90;99.90;;;;;;5033046;28;20381;-64
2021/08/04 07:26:32;;;;;;;16.20;10.65;;;19.90;99.90;;;;;;5051693;28;20047;-63
2021/08/04 07:28:57;;;;;;;17.40;10.90;;;19.40;99.90;;;;;;5054024;28;20025;-63
2021/08/04 07:31:24;;;;;;;17.73;11.18;;;19.50;99.90;;;;;;5053701;28;20040;-64
2021/08/04 07:33:50;;;;;;;17.63;11.30;;;19.70;99.90;;;;;;5053261;28;20021;-63
2021/08/04 07:36:16;;;;;;;17.02;10.88;;;19.70;99.90;;;;;;5053624;28;20021;-64
2021/08/04 07:38:42;;;;;;;16.83;10.82;;;19.90;99.90;;;;;;5054659;28;20029;-63
2021/08/04 07:41:08;;;;;;;17.65;11.40;;;19.90;99.90;;;;;;5054254;28;20025;-65
2021/08/04 07:43:33;;;;;;;18.15;11.45;;;19.80;99.90;;;;;;5036587;28;20024;-63
2021/08/04 07:45:59;;;;;;;15.52;10.63;;;19.90;99.90;;;;;;5053765;28;20417;-63
2021/08/04 07:48:27;;;;;;;16.52;12.10;;;19.80;99.90;;;;;;5036660;28;20037;-64
2021/08/04 07:50:53;;;;;;;17.25;11.60;;;19.60;99.90;;;;;;5054354;28;20029;-63
2021/08/04 07:53:19;;;;;;;16.00;11.00;;;19.70;99.90;;;;;;5035727;28;20407;-64
2021/08/04 07:55:44;;;;;;;17.17;11.73;;;19.60;99.90;;;;;;5052995;28;20040;-64
2021/08/04 07:58:10;;;;;;;16.77;10.90;;;19.60;99.90;;;;;;5053904;28;20103;-64
2021/08/04 08:00:35;;;;;;;17.38;11.80;;;19.70;99.90;;;;;;5035944;28;20397;-64
2021/08/04 08:03:02;;;;;;;16.23;11.63;;;19.70;99.90;;;;;;5035622;28;20032;-64
2021/08/04 08:05:28;;;;;;;17.98;11.48;;;19.60;99.90;;;;;;5053251;28;20068;-64
2021/08/04 08:07:53;;;;;;;16.83;11.45;;;19.70;99.90;;;;;;5035883;28;20028;-64
2021/08/04 08:10:21;;;;;;;16.58;11.05;;;19.70;99.90;;;;;;5036152;28;20116;-63
2021/08/04 08:12:47;;;;;;;16.10;11.40;;;19.80;99.90;;;;;;5035832;28;20025;-63
2021/08/04 08:15:13;;;;;;;18.27;11.35;;;19.80;99.90;;;;;;5035276;28;20551;-64
2021/08/04 08:17:39;;;;;;;16.67;11.10;;;19.80;99.90;;;;;;5053488;28;20029;-65
2021/08/04 08:20:06;;;;;;;17.65;11.23;;;19.60;99.90;;;;;;5035297;28;20032;-63
2021/08/04 08:22:32;;;;;;;16.95;11.00;;;19.80;99.90;;;;;;5053437;28;20025;-63
2021/08/04 08:24:58;;;;;;;17.55;11.10;;;19.70;99.90;;;;;;5053503;28;20055;-64
2021/08/04 08:27:23;;;;;;;17.33;10.63;;;19.90;99.90;;;;;;5034920;28;20031;-63
2021/08/04 08:29:49;;;;;;;16.25;10.80;;;20.10;99.90;;;;;;5053363;28;20033;-64
2021/08/04 08:32:15;;;;;;;15.68;11.13;;;;;;;;;;5035441;28;20547;-64
2021/08/04 08:34:41;;;;;;;16.13;11.02;;;;;;;;;;5033337;28;20021;-64
2021/08/04 08:37:07;;;;;;;19.27;11.50;;;;;;;;;;5034416;28;20056;-64
2021/08/04 08:39:33;;;;;;;15.40;10.95;;;;;;;;;;5053133;28;20127;-63
2021/08/04 08:42:00;;;;;;;17.25;11.05;;;;;;;;;;5052952;28;20028;-64
2021/08/04 08:44:26;;;;;;;17.25;11.18;;;;;;;;;;5052853;28;20029;-64
2021/08/04 08:46:52;;;;;;;17.15;11.15;;;;;;;;;;5051762;28;20055;-63
2021/08/04 08:49:28;;;;;;;18.13;11.20;;;;;;;;;;5052470;28;20496;-63
2021/08/04 08:51:56;;;;;;;17.60;10.75;;;;;;;;;;5053128;28;20025;-64
2021/08/04 08:54:22;;;;;;;18.08;10.85;;;;;;;;;;5052883;28;20032;-64
2021/08/04 08:56:48;;;;;;;16.30;10.98;;;;;;;;;;5052024;28;20043;-62
2021/08/04 08:59:17;;;;;;;16.25;11.07;;;;;;;;;;5053200;28;20021;-62
2021/08/04 09:01:44;;;;;;;19.40;12.85;;;;;;;;;;5034607;28;20102;-63
2021/08/04 09:04:12;;;;;;;17.30;11.30;;;;;;;;;;5052644;28;20623;-62
2021/08/04 09:06:43;;;;;;;20.87;12.07;;;;;;;;;;5052030;28;20417;-63
2021/08/04 09:09:23;;;;;;;16.75;11.25;;;;;;;;;;5052408;28;20029;-63
2021/08/04 09:11:51;;;;;;;18.27;12.02;;;;;;;;;;5052508;28;20036;-64
2021/08/04 09:14:24;;;;;;;18.23;11.85;;;;;;;;;;5034426;28;20075;-63
2021/08/04 09:17:01;;;;;;;18.48;11.75;;;;;;;;;;5051385;28;20013;-63
2021/08/04 09:19:28;;;;;;;16.83;11.27;;;;;;;;;;5034345;28;20032;-63
2021/08/04 09:22:09;;;;;;;18.73;12.82;;;;;;;;;;5034943;28;20040;-63
2021/08/04 09:24:54;;;;;;;17.58;11.57;;;;;;;;;;5052208;28;20021;-63
2021/08/04 09:27:20;;;;;;;16.13;11.25;;;;;;;;;;5051683;28;20194;-63
2021/08/04 09:30:06;;;;;;;16.50;12.15;;;;;;;;;;5052248;28;20040;-62
2021/08/04 09:32:32;;;;;;;18.70;12.25;;;;;;;;;;5052355;28;20401;-63
2021/08/04 09:35:06;;;;;;;15.95;11.68;;;;;;;;;;5050935;28;20025;-62
2021/08/04 09:37:32;;;;;;;19.90;12.27;;;;;;;;;;5052287;28;20031;-63
2021/08/04 09:40:01;;;;;;;17.23;12.27;;;;;;;;;;5051971;28;20028;-63
2021/08/04 09:42:46;;;;;;;16.70;12.27;;;;;;;;;;5051805;28;20099;-62
2021/08/04 09:45:12;;;;;;;17.63;11.73;;;;;;;;;;5051399;28;20067;-62
2021/08/04 09:47:38;;;;;;;16.13;11.20;;;;;;;;;;5051662;28;20032;-62
2021/08/04 09:50:08;;;;;;;16.90;11.30;;;;;;;;;;5050989;28;20389;-63
2021/08/04 09:52:35;;;;;;;16.90;11.38;;;;;;;;;;5051532;28;20361;-63
2021/08/04 09:55:11;;;;;;;17.25;11.20;;;;;;;;;;5051419;28;20033;-62
2021/08/04 09:57:45;;;;;;;16.42;11.00;;;;;;;;;;5051520;28;20147;-62
2021/08/04 10:00:12;;;;;;;16.65;11.85;;;;;;;;;;5051753;28;20104;-62
2021/08/04 10:02:38;;;;;;;18.25;11.68;;;;;;;;;;5052101;28;20024;-63
2021/08/04 10:05:18;;;;;;;16.65;11.15;;;;;;;;;;5051336;28;20021;-62
2021/08/04 10:08:03;;;;;;;19.75;12.45;;;;;;;;;;5051662;28;20094;-62
2021/08/04 10:10:29;;;;;;;16.42;11.70;;;;;;;;;;5051561;28;20025;-62
2021/08/04 10:12:55;;;;;;;16.77;11.98;;;;;;;;;;5051349;28;20052;-62
2021/08/04 10:15:22;;;;;;;16.50;12.18;;;;;;;;;;5050797;28;20432;-65
2021/08/04 10:17:48;;;;;;;18.90;12.13;;;;;;;;;;5033246;28;20075;-62
2021/08/04 10:20:15;;;;;;;16.92;11.60;;;;;;;;;;5051408;28;20028;-62
2021/08/04 10:22:41;;;;;;;16.42;11.40;;;;;;;;;;5033527;28;20082;-65
2021/08/04 10:25:07;;;;;;;17.92;11.55;;;;;;;;;;5033320;28;20029;-62
2021/08/04 10:27:34;;;;;;;16.23;11.90;;;;;;;;;;5051755;28;20021;-64
2021/08/04 10:30:00;;;;;;;18.33;12.20;;;;;;;;;;5033739;28;20021;-63
2021/08/04 10:32:28;;;;;;;16.35;12.15;;;;;;;;;;5051275;28;20539;-64
2021/08/04 10:34:56;;;;;;;17.58;11.82;;;;;;;;;;5031725;28;20025;-64
2021/08/04 10:37:23;;;;;;;16.23;11.65;;;;;;;;;;5050580;28;20082;-64
2021/08/04 10:39:49;;;;;;;16.77;11.77;;;;;;;;;;5051224;28;20029;-64
2021/08/04 10:42:15;;;;;;;17.67;12.10;;;;;;;;;;5051044;28;20025;-62
2021/08/04 10:44:44;;;;;;;16.38;11.43;;;;;;;;;;5051234;28;20032;-63
2021/08/04 10:47:25;;;;;;;16.60;11.82;;;;;;;;;;5050425;28;20371;-63
2021/08/04 10:50:07;;;;;;;15.90;11.88;;;;;;;;;;5051184;28;20389;-63
2021/08/04 10:52:33;;;;;;;16.42;12.27;;;;;;;;;;5051041;28;20033;-63
2021/08/04 10:55:04;;;;;;;16.67;11.50;;;;;;;;;;5050796;28;20033;-63
2021/08/04 10:57:34;;;;;;;18.77;12.15;;;;;;;;;;5032664;28;20075;-63
2021/08/04 11:00:19;;;;;;;15.82;11.48;;;;;;;;;;5033127;28;20021;-62
2021/08/04 11:02:45;;;;;;;16.67;11.43;;;;;;;;;;5055098;28;20477;-62
2021/08/04 11:05:13;;;;;;;15.55;11.50;;;;;;;;;;5036364;28;20070;-64
2021/08/04 11:07:59;;;;;;;16.90;12.07;;;;;;;;;;5054863;28;20611;-64
2021/08/04 11:10:40;;;;;;;15.40;11.25;;;;;;;;;;5055315;28;20389;-64
2021/08/04 11:13:06;;;;;;;15.73;11.45;;;;;;;;;;5054994;28;20029;-64
2021/08/04 11:15:33;;;;;;;17.48;11.63;;;;;;;;;;5036274;28;20033;-64
2021/08/04 11:18:06;;;;;;;17.10;11.10;;;;;;;;;;5055075;28;20036;-64
2021/08/04 11:20:33;;;;;;;19.23;11.25;;;;;;;;;;5054713;28;20380;-63
2021/08/04 11:22:59;;;;;;;15.93;11.90;;;;;;;;;;5055050;28;20036;-64
2021/08/04 11:25:35;;;;;;;17.25;11.93;;;;;;;;;;5036401;28;20040;-64
2021/08/04 11:28:01;;;;;;;16.63;12.35;;;;;;;;;;5054656;28;20392;-64
2021/08/04 11:30:31;;;;;;;18.02;11.88;;;;;;;;;;5054757;28;20032;-64
2021/08/04 11:33:16;;;;;;;21.35;12.20;;;;;;;;;;5054763;28;20024;-64
2021/08/04 11:35:42;;;;;;;16.50;11.93;;;;;;;;;;5034545;28;20482;-64
2021/08/04 11:38:08;;;;;;;16.50;12.38;;;;;;;;;;5036890;28;20040;-63
2021/08/04 11:40:34;;;;;;;16.95;12.13;;;;;;;;;;5054595;28;20021;-64
2021/08/04 11:43:00;;;;;;;17.17;11.77;;;;;;;;;;5054437;28;20469;-64
2021/08/04 11:45:26;;;;;;;17.38;11.50;;;;;;;;;;5053391;23;20276;-69
2021/08/04 11:47:52;;;;;;;15.60;11.38;;;;;;;;;;5073444;28;20470;-70
2021/08/04 11:50:18;;;;;;;16.10;11.50;;;;;;;;;;5055109;28;20064;-68
2021/08/04 11:52:44;;;;;;;16.13;11.95;;;;;;;;;;5072913;28;20162;-68
2021/08/04 11:55:11;;;;;;;16.70;12.05;;;;;;;;;;5072304;28;20076;-67
2021/08/04 11:57:45;;;;;;;17.08;12.00;;;;;;;;;;5073041;28;20021;-69
2021/08/04 12:00:18;;;;;;;16.33;11.45;;;;;;;;;;5073031;28;20032;-66
2021/08/04 12:02:45;;;;;;;18.27;12.07;;;;;;;;;;5055180;28;20425;-67
2021/08/04 12:05:15;;;;;;;16.20;11.90;;;;;;;;;;5072039;28;20028;-69
2021/08/04 12:07:42;;;;;;;16.88;11.50;;;;;;;;;;5054835;28;20119;-68
2021/08/04 12:10:20;;;;;;;17.42;12.68;;;;;;;;;;5073053;28;20052;-66
2021/08/04 12:12:47;;;;;;;;;;;;;;;;;;5072785;28;20284;-69
2021/08/04 12:15:15;;;;;;;16.92;11.93;;;;;;;;;;5071996;28;20303;-67
2021/08/04 12:17:41;;;;;;;18.30;12.13;;;;;;;;;;5054635;28;20115;-68
2021/08/04 12:20:15;;;;;;;16.30;11.95;;;;;;;;;;5054750;28;20032;-69
2021/08/04 12:22:42;;;;;;;17.67;12.18;;;;;;;;;;5054391;28;20020;-67
2021/08/04 12:25:08;;;;;;;16.08;11.48;;;;;;;;;;5071826;28;20530;-68
2021/08/04 12:27:45;;;;;;;15.20;11.45;;;;;;;;;;5071914;28;20021;-67
2021/08/04 12:30:17;;;;;;;17.50;11.52;;;;;;;;;;5054085;28;20029;-69
2021/08/04 12:32:51;;;;;;;16.23;12.00;;;;;;;;;;5054224;28;20401;-69
2021/08/04 12:35:21;;;;;;;17.63;11.70;;;;;;;;;;5051523;28;20061;-69
2021/08/04 12:37:48;;;;;;;17.08;11.38;;;;;;;;;;5072251;28;20186;-68
2021/08/04 12:40:15;;;;;;;16.30;11.63;;;;;;;;;;5054044;28;20032;-69
2021/08/04 12:42:41;;;;;;;16.23;11.13;;;;;;;;;;5071923;28;20036;-66
2021/08/04 12:45:24;;;;;;;16.30;11.45;;;;;;;;;;5071145;28;20101;-65
2021/08/04 12:47:54;;;;;;;16.13;11.50;;;;;;;;;;5053624;28;20032;-69
2021/08/04 12:50:44;;;;;;;17.20;11.23;;;20.30;99.90;;;;;;5068803;28;20024;-68
2021/08/04 12:53:25;;;;;;;16.77;11.82;;;27.60;99.90;;;;;;5056743;28;20362;-70
2021/08/04 12:56:07;;;;;;;16.15;11.85;;;26.70;99.90;;;;;;5069283;28;20035;-68
2021/08/04 12:58:54;;;;;;;17.92;12.20;;;26.20;99.90;;;;;;5070268;28;20024;-67
2021/08/04 13:01:21;;;;;;;16.80;11.90;;;25.40;99.90;;;;;;5040903;28;20028;-68
2021/08/04 13:03:50;;;;;;;16.42;11.82;;;25.90;99.90;;;;;;5052584;28;20044;-68
2021/08/04 13:06:16;;;;;;;17.17;11.70;;;26.30;99.90;;;;;;5052368;28;20054;-69
2021/08/04 13:08:42;;;;;;;16.55;12.10;;;26.40;99.90;;;;;;5071260;28;20448;-68
2021/08/04 13:11:24;;;;;;;15.90;11.93;;;;;;;;;;5053064;28;20059;-68
2021/08/04 13:14:02;;;;;;;15.95;12.10;;;;;;;;;;5051885;28;20028;-68
2021/08/04 13:16:28;;;;;;;;;;;;;;;;;;5069430;28;20542;-69
2021/08/04 13:18:54;;;;;;;16.90;12.27;;;;;;;;;;5070704;28;19946;-69
2021/08/04 13:21:20;;;;;;;16.40;12.68;;;;;;;;;;5071189;28;20074;-69
2021/08/04 13:23:46;;;;;;;15.90;12.60;;;;;;;;;;5069067;28;20017;-70
2021/08/04 13:26:14;;;;;;;16.50;12.50;;;;;;;;;;5052097;28;20423;-69
2021/08/04 13:28:43;;;;;;;16.38;12.50;;;;;;;;;;5070890;28;20013;-68
2021/08/04 13:31:13;;;;;;;16.65;12.63;;;;;;;;;;5070715;28;20023;-68
2021/08/04 13:33:41;;;;;;;16.95;12.77;;;;;;;;;;5050336;28;20027;-69
2021/08/04 13:36:07;;;;;;;15.38;12.00;;;;;;;;;;5068194;28;20031;-68
2021/08/04 13:38:33;;;;;;;15.52;12.20;;;;;;;;;;5052510;28;20025;-69
2021/08/04 13:41:00;;;;;;;16.45;12.48;;;;;;;;;;5070595;28;20369;-68
2021/08/04 13:43:26;;;;;;;16.85;12.52;;;;;;;;;;5070250;28;20100;-68
2021/08/04 13:45:54;;;;;;;;;;;;;;;;;;5069735;28;20049;-70
2021/08/04 13:48:20;;;;;;;16.98;12.15;;;;;;;;;;5069703;28;19974;-68
2021/08/04 13:50:46;;;;;;;15.40;11.82;;;;;;;;;;5069631;28;20053;-69
2021/08/04 13:53:12;;;;;;;15.40;12.10;;;;;;;;;;5070175;28;20032;-69
2021/08/04 13:55:38;;;;;;;16.40;12.38;;;;;;;;;;5069496;28;20540;-70
2021/08/04 13:58:05;;;;;;;15.40;12.30;;;;;;;;;;5051803;28;20473;-68
2021/08/04 14:00:33;;;;;;;16.50;12.68;;;26.70;99.90;;;;;;5070227;28;20021;-68
2021/08/04 14:02:59;;;;;;;16.75;12.32;;;;;;;;;;5067691;28;20024;-70
2021/08/04 14:05:27;;;;;;;15.95;12.15;;;;;;;;;;5069565;28;20021;-68
2021/08/04 14:07:54;;;;;;;17.98;12.40;;;;;;;;;;5070844;28;20040;-67
2021/08/04 14:10:22;;;;;;;16.40;12.00;;;33.00;96.60;;;;;;5070361;28;20024;-68
2021/08/04 14:12:49;;;;;;;16.48;12.43;;;;;;;;;;5052518;28;20029;-68
2021/08/04 14:15:19;;;;;;;19.13;12.18;;;;;;;;;;5051657;28;20054;-67
2021/08/04 14:17:45;;;;;;;15.57;11.63;;;;;;;;;;5070338;28;20025;-68
2021/08/04 14:20:12;;;;;;;15.15;11.68;;;;;;;;;;5070251;28;20028;-69
2021/08/04 14:22:38;;;;;;;17.55;11.70;;;;;;;;;;5070403;28;20020;-66
2021/08/04 14:25:05;;;;;;;16.25;11.88;;;;;;;;;;5070024;28;20548;-67
2021/08/04 14:27:31;;;;;;;16.35;11.70;;;;;;;;;;5069925;28;20073;-67
2021/08/04 14:29:57;;;;;;;17.95;12.60;;;;;;;;;;5070051;28;20135;-67
2021/08/04 14:32:23;;;;;;;17.65;12.48;;;;;;;;;;5069620;28;20500;-66